sensor_id;sensor_type;location;lat;lon;timestamp;P1;durP1;ratioP1;P2;durP2;ratioP2
11066;SDS011;29763;50.904;5.530;2023-07-31T00:02:20;11.07;;;5.10;;
11066;SDS011;29763;50.904;5.530;2023-07-31T00:04:46;8.43;;;4.43;;
11066;SDS011;29763;50.904;5.530;2023-07-31T00:07:13;9.18;;;4.70;;
11066;SDS011;29763;50.904;5.530;2023-07-31T00:09:39;7.97;;;4.30;;
11066;SDS011;29763;50.904;5.530;2023-07-31T00:12:07;10.68;;;4.78;;
11066;SDS011;29763;50.904;5.530;2023-07-31T00:14:34;13.32;;;4.93;;
11066;SDS011;29763;50.904;5.530;2023-07-31T00:17:00;9.35;;;4.82;;
11066;SDS011;29763;50.904;5.530;2023-07-31T00:19:26;7.60;;;4.47;;
11066;SDS011;29763;50.904;5.530;2023-07-31T00:21:55;8.45;;;4.47;;
11066;SDS011;29763;50.904;5.530;2023-07-31T00:24:38;12.32;;;4.50;;
11066;SDS011;29763;50.904;5.530;2023-07-31T00:27:05;9.93;;;4.57;;
11066;SDS011;29763;50.904;5.530;2023-07-31T00:29:30;9.15;;;4.70;;
11066;SDS011;29763;50.904;5.530;2023-07-31T00:31:58;10.55;;;4.75;;
11066;SDS011;29763;50.904;5.530;2023-07-31T00:34:24;10.05;;;4.47;;
11066;SDS011;29763;50.904;5.530;2023-07-31T00:36:52;10.43;;;4.72;;
11066;SDS011;29763;50.904;5.530;2023-07-31T00:39:18;8.40;;;4.13;;
11066;SDS011;29763;50.904;5.530;2023-07-31T00:41:44;10.70;;;4.75;;
11066;SDS011;29763;50.904;5.530;2023-07-31T00:44:10;8.30;;;4.72;;
11066;SDS011;29763;50.904;5.530;2023-07-31T00:46:36;12.55;;;4.68;;
11066;SDS011;29763;50.904;5.530;2023-07-31T00:49:04;9.15;;;4.60;;
11066;SDS011;29763;50.904;5.530;2023-07-31T00:51:36;7.88;;;4.15;;
11066;SDS011;29763;50.904;5.530;2023-07-31T00:54:02;9.80;;;4.32;;
11066;SDS011;29763;50.904;5.530;2023-07-31T00:56:29;8.73;;;4.63;;
11066;SDS011;29763;50.904;5.530;2023-07-31T00:58:57;7.57;;;4.47;;
11066;SDS011;29763;50.904;5.530;2023-07-31T01:01:26;8.27;;;4.72;;
11066;SDS011;29763;50.904;5.530;2023-07-31T01:03:54;8.52;;;4.63;;
11066;SDS011;29763;50.904;5.530;2023-07-31T01:09:08;9.50;;;4.70;;
11066;SDS011;29763;50.904;5.530;2023-07-31T01:11:56;9.45;;;4.32;;
11066;SDS011;29763;50.904;5.530;2023-07-31T01:14:26;8.00;;;4.28;;
11066;SDS011;29763;50.904;5.530;2023-07-31T01:16:52;8.88;;;4.43;;
11066;SDS011;29763;50.904;5.530;2023-07-31T01:19:25;7.45;;;4.85;;
11066;SDS011;29763;50.904;5.530;2023-07-31T01:22:04;7.40;;;4.60;;
11066;SDS011;29763;50.904;5.530;2023-07-31T01:27:51;9.00;;;4.50;;
11066;SDS011;29763;50.904;5.530;2023-07-31T01:30:34;8.30;;;4.70;;
11066;SDS011;29763;50.904;5.530;2023-07-31T01:33:07;12.00;;;5.03;;
11066;SDS011;29763;50.904;5.530;2023-07-31T01:35:34;7.07;;;4.45;;
11066;SDS011;29763;50.904;5.530;2023-07-31T01:38:00;8.15;;;5.03;;
11066;SDS011;29763;50.904;5.530;2023-07-31T01:40:28;9.23;;;4.72;;
11066;SDS011;29763;50.904;5.530;2023-07-31T01:42:55;9.88;;;5.10;;
11066;SDS011;29763;50.904;5.530;2023-07-31T01:45:21;8.30;;;4.60;;
11066;SDS011;29763;50.904;5.530;2023-07-31T01:47:47;9.35;;;4.85;;
11066;SDS011;29763;50.904;5.530;2023-07-31T01:50:15;8.70;;;4.75;;
11066;SDS011;29763;50.904;5.530;2023-07-31T01:52:42;10.07;;;5.15;;
11066;SDS011;29763;50.904;5.530;2023-07-31T01:55:08;8.20;;;4.30;;
11066;SDS011;29763;50.904;5.530;2023-07-31T01:57:36;9.55;;;5.13;;
11066;SDS011;29763;50.904;5.530;2023-07-31T02:00:03;9.63;;;5.05;;
11066;SDS011;29763;50.904;5.530;2023-07-31T02:02:29;8.30;;;4.63;;
11066;SDS011;29763;50.904;5.530;2023-07-31T02:04:55;9.27;;;4.65;;
11066;SDS011;29763;50.904;5.530;2023-07-31T02:07:21;7.78;;;4.40;;
11066;SDS011;29763;50.904;5.530;2023-07-31T02:09:47;10.90;;;5.47;;
11066;SDS011;29763;50.904;5.530;2023-07-31T02:12:18;9.27;;;4.93;;
11066;SDS011;29763;50.904;5.530;2023-07-31T02:14:44;7.22;;;4.82;;
11066;SDS011;29763;50.904;5.530;2023-07-31T02:17:12;9.40;;;5.03;;
11066;SDS011;29763;50.904;5.530;2023-07-31T02:19:39;6.50;;;5.18;;
11066;SDS011;29763;50.904;5.530;2023-07-31T02:22:08;8.50;;;5.18;;
11066;SDS011;29763;50.904;5.530;2023-07-31T02:24:36;7.28;;;4.95;;
11066;SDS011;29763;50.904;5.530;2023-07-31T02:27:02;8.02;;;4.95;;
11066;SDS011;29763;50.904;5.530;2023-07-31T02:29:29;9.73;;;5.60;;
11066;SDS011;29763;50.904;5.530;2023-07-31T02:31:55;9.73;;;5.70;;
11066;SDS011;29763;50.904;5.530;2023-07-31T02:34:21;9.52;;;4.72;;
11066;SDS011;29763;50.904;5.530;2023-07-31T02:36:46;9.35;;;4.70;;
11066;SDS011;29763;50.904;5.530;2023-07-31T02:39:14;8.23;;;4.65;;
11066;SDS011;29763;50.904;5.530;2023-07-31T02:41:40;8.20;;;5.35;;
11066;SDS011;29763;50.904;5.530;2023-07-31T02:44:06;9.15;;;5.20;;
11066;SDS011;29763;50.904;5.530;2023-07-31T02:46:33;8.32;;;5.22;;
11066;SDS011;29763;50.904;5.530;2023-07-31T02:48:59;9.40;;;5.10;;
11066;SDS011;29763;50.904;5.530;2023-07-31T02:51:25;8.10;;;4.90;;
11066;SDS011;29763;50.904;5.530;2023-07-31T02:53:51;8.80;;;5.20;;
11066;SDS011;29763;50.904;5.530;2023-07-31T02:56:17;9.60;;;5.53;;
11066;SDS011;29763;50.904;5.530;2023-07-31T02:58:46;5.07;;;4.35;;
11066;SDS011;29763;50.904;5.530;2023-07-31T03:01:12;8.35;;;5.05;;
11066;SDS011;29763;50.904;5.530;2023-07-31T03:03:40;11.40;;;5.45;;
11066;SDS011;29763;50.904;5.530;2023-07-31T03:06:06;8.85;;;5.95;;
11066;SDS011;29763;50.904;5.530;2023-07-31T03:08:32;7.65;;;5.28;;
11066;SDS011;29763;50.904;5.530;2023-07-31T03:10:58;9.70;;;5.15;;
11066;SDS011;29763;50.904;5.530;2023-07-31T03:13:24;8.32;;;5.40;;
11066;SDS011;29763;50.904;5.530;2023-07-31T03:15:51;6.90;;;4.80;;
11066;SDS011;29763;50.904;5.530;2023-07-31T03:18:20;9.20;;;5.72;;
11066;SDS011;29763;50.904;5.530;2023-07-31T03:20:47;11.85;;;6.00;;
11066;SDS011;29763;50.904;5.530;2023-07-31T03:23:13;12.43;;;5.85;;
11066;SDS011;29763;50.904;5.530;2023-07-31T03:25:39;8.90;;;5.20;;
11066;SDS011;29763;50.904;5.530;2023-07-31T03:28:21;9.25;;;5.97;;
11066;SDS011;29763;50.904;5.530;2023-07-31T03:30:47;9.55;;;5.65;;
11066;SDS011;29763;50.904;5.530;2023-07-31T03:33:13;7.40;;;5.03;;
11066;SDS011;29763;50.904;5.530;2023-07-31T03:35:41;8.43;;;5.50;;
11066;SDS011;29763;50.904;5.530;2023-07-31T03:38:09;8.88;;;5.28;;
11066;SDS011;29763;50.904;5.530;2023-07-31T03:40:35;8.05;;;5.18;;
11066;SDS011;29763;50.904;5.530;2023-07-31T03:43:04;9.85;;;5.38;;
11066;SDS011;29763;50.904;5.530;2023-07-31T03:45:30;8.23;;;4.93;;
11066;SDS011;29763;50.904;5.530;2023-07-31T03:47:56;7.80;;;5.07;;
11066;SDS011;29763;50.904;5.530;2023-07-31T03:50:23;6.65;;;4.90;;
11066;SDS011;29763;50.904;5.530;2023-07-31T03:52:56;7.90;;;5.05;;
11066;SDS011;29763;50.904;5.530;2023-07-31T03:55:23;7.88;;;4.88;;
11066;SDS011;29763;50.904;5.530;2023-07-31T03:57:51;7.22;;;5.00;;
11066;SDS011;29763;50.904;5.530;2023-07-31T04:00:18;6.78;;;4.85;;
11066;SDS011;29763;50.904;5.530;2023-07-31T04:02:47;7.88;;;4.75;;
11066;SDS011;29763;50.904;5.530;2023-07-31T04:05:14;8.38;;;4.72;;
11066;SDS011;29763;50.904;5.530;2023-07-31T04:07:42;7.90;;;4.72;;
11066;SDS011;29763;50.904;5.530;2023-07-31T04:10:09;7.00;;;4.95;;
11066;SDS011;29763;50.904;5.530;2023-07-31T04:12:35;7.90;;;4.75;;
11066;SDS011;29763;50.904;5.530;2023-07-31T04:15:01;8.48;;;4.90;;
11066;SDS011;29763;50.904;5.530;2023-07-31T04:17:26;8.57;;;4.78;;
11066;SDS011;29763;50.904;5.530;2023-07-31T04:19:52;8.48;;;5.30;;
11066;SDS011;29763;50.904;5.530;2023-07-31T04:22:17;9.15;;;5.28;;
11066;SDS011;29763;50.904;5.530;2023-07-31T04:24:43;6.60;;;5.25;;
11066;SDS011;29763;50.904;5.530;2023-07-31T04:27:11;7.90;;;5.60;;
11066;SDS011;29763;50.904;5.530;2023-07-31T04:29:37;8.52;;;5.38;;
11066;SDS011;29763;50.904;5.530;2023-07-31T04:32:07;8.63;;;5.15;;
11066;SDS011;29763;50.904;5.530;2023-07-31T04:34:35;10.45;;;5.38;;
11066;SDS011;29763;50.904;5.530;2023-07-31T04:37:00;7.93;;;5.30;;
11066;SDS011;29763;50.904;5.530;2023-07-31T04:39:26;7.22;;;5.40;;
11066;SDS011;29763;50.904;5.530;2023-07-31T04:41:53;8.13;;;5.55;;
11066;SDS011;29763;50.904;5.530;2023-07-31T04:44:20;8.25;;;5.22;;
11066;SDS011;29763;50.904;5.530;2023-07-31T04:46:52;6.50;;;4.78;;
11066;SDS011;29763;50.904;5.530;2023-07-31T04:49:17;7.68;;;5.40;;
11066;SDS011;29763;50.904;5.530;2023-07-31T04:51:44;7.97;;;4.70;;
11066;SDS011;29763;50.904;5.530;2023-07-31T04:54:10;7.88;;;5.15;;
11066;SDS011;29763;50.904;5.530;2023-07-31T04:56:37;8.50;;;4.70;;
11066;SDS011;29763;50.904;5.530;2023-07-31T04:59:06;7.10;;;5.03;;
11066;SDS011;29763;50.904;5.530;2023-07-31T05:01:32;7.40;;;4.95;;
11066;SDS011;29763;50.904;5.530;2023-07-31T05:03:58;6.72;;;4.70;;
11066;SDS011;29763;50.904;5.530;2023-07-31T05:06:23;8.25;;;4.95;;
11066;SDS011;29763;50.904;5.530;2023-07-31T05:08:54;7.15;;;4.90;;
11066;SDS011;29763;50.904;5.530;2023-07-31T05:11:21;7.05;;;4.63;;
11066;SDS011;29763;50.904;5.530;2023-07-31T05:13:47;6.97;;;5.45;;
11066;SDS011;29763;50.904;5.530;2023-07-31T05:16:13;8.35;;;4.93;;
11066;SDS011;29763;50.904;5.530;2023-07-31T05:18:41;8.63;;;4.95;;
11066;SDS011;29763;50.904;5.530;2023-07-31T05:21:07;7.32;;;4.97;;
11066;SDS011;29763;50.904;5.530;2023-07-31T05:23:35;6.28;;;4.90;;
11066;SDS011;29763;50.904;5.530;2023-07-31T05:26:04;5.32;;;4.65;;
11066;SDS011;29763;50.904;5.530;2023-07-31T05:28:35;7.88;;;4.72;;
11066;SDS011;29763;50.904;5.530;2023-07-31T05:31:04;9.27;;;5.00;;
11066;SDS011;29763;50.904;5.530;2023-07-31T05:33:30;6.03;;;4.57;;
11066;SDS011;29763;50.904;5.530;2023-07-31T05:36:00;7.93;;;4.70;;
11066;SDS011;29763;50.904;5.530;2023-07-31T05:38:29;6.13;;;4.50;;
11066;SDS011;29763;50.904;5.530;2023-07-31T05:40:56;6.72;;;5.05;;
11066;SDS011;29763;50.904;5.530;2023-07-31T05:43:22;8.43;;;4.60;;
11066;SDS011;29763;50.904;5.530;2023-07-31T05:45:47;9.85;;;4.78;;
11066;SDS011;29763;50.904;5.530;2023-07-31T05:48:14;6.90;;;4.95;;
11066;SDS011;29763;50.904;5.530;2023-07-31T05:50:39;8.60;;;4.80;;
11066;SDS011;29763;50.904;5.530;2023-07-31T05:53:06;8.65;;;4.80;;
11066;SDS011;29763;50.904;5.530;2023-07-31T05:55:33;7.18;;;4.18;;
11066;SDS011;29763;50.904;5.530;2023-07-31T05:58:01;7.35;;;4.53;;
11066;SDS011;29763;50.904;5.530;2023-07-31T06:00:27;6.35;;;4.63;;
11066;SDS011;29763;50.904;5.530;2023-07-31T06:02:54;5.72;;;4.40;;
11066;SDS011;29763;50.904;5.530;2023-07-31T06:05:19;5.68;;;4.18;;
11066;SDS011;29763;50.904;5.530;2023-07-31T06:07:45;9.48;;;4.30;;
11066;SDS011;29763;50.904;5.530;2023-07-31T06:10:13;8.25;;;4.78;;
11066;SDS011;29763;50.904;5.530;2023-07-31T06:12:40;7.03;;;5.13;;
11066;SDS011;29763;50.904;5.530;2023-07-31T06:15:07;7.35;;;4.63;;
11066;SDS011;29763;50.904;5.530;2023-07-31T06:17:48;6.50;;;4.68;;
11066;SDS011;29763;50.904;5.530;2023-07-31T06:20:15;7.00;;;4.70;;
11066;SDS011;29763;50.904;5.530;2023-07-31T06:22:41;10.75;;;4.90;;
11066;SDS011;29763;50.904;5.530;2023-07-31T06:25:07;8.32;;;4.70;;
11066;SDS011;29763;50.904;5.530;2023-07-31T06:27:33;9.07;;;4.97;;
11066;SDS011;29763;50.904;5.530;2023-07-31T06:30:03;7.25;;;4.50;;
11066;SDS011;29763;50.904;5.530;2023-07-31T06:32:30;5.95;;;4.32;;
11066;SDS011;29763;50.904;5.530;2023-07-31T06:34:56;5.68;;;4.20;;
11066;SDS011;29763;50.904;5.530;2023-07-31T06:37:25;7.32;;;4.80;;
11066;SDS011;29763;50.904;5.530;2023-07-31T06:39:58;8.93;;;4.63;;
11066;SDS011;29763;50.904;5.530;2023-07-31T06:42:26;7.40;;;4.55;;
11066;SDS011;29763;50.904;5.530;2023-07-31T06:44:55;7.50;;;4.63;;
11066;SDS011;29763;50.904;5.530;2023-07-31T06:47:22;7.97;;;4.20;;
11066;SDS011;29763;50.904;5.530;2023-07-31T06:49:49;8.80;;;5.30;;
11066;SDS011;29763;50.904;5.530;2023-07-31T06:52:24;6.60;;;4.90;;
11066;SDS011;29763;50.904;5.530;2023-07-31T06:55:01;9.77;;;5.15;;
11066;SDS011;29763;50.904;5.530;2023-07-31T06:57:42;8.05;;;4.57;;
11066;SDS011;29763;50.904;5.530;2023-07-31T07:00:08;7.78;;;4.60;;
11066;SDS011;29763;50.904;5.530;2023-07-31T07:02:34;7.13;;;4.85;;
11066;SDS011;29763;50.904;5.530;2023-07-31T07:05:00;7.00;;;5.13;;
11066;SDS011;29763;50.904;5.530;2023-07-31T07:07:27;6.53;;;4.57;;
11066;SDS011;29763;50.904;5.530;2023-07-31T07:09:52;7.10;;;5.00;;
11066;SDS011;29763;50.904;5.530;2023-07-31T07:12:26;7.95;;;4.95;;
11066;SDS011;29763;50.904;5.530;2023-07-31T07:14:55;7.88;;;5.53;;
11066;SDS011;29763;50.904;5.530;2023-07-31T07:17:23;9.27;;;4.80;;
11066;SDS011;29763;50.904;5.530;2023-07-31T07:19:49;7.47;;;4.85;;
11066;SDS011;29763;50.904;5.530;2023-07-31T07:22:15;8.50;;;4.38;;
11066;SDS011;29763;50.904;5.530;2023-07-31T07:24:42;7.25;;;4.30;;
11066;SDS011;29763;50.904;5.530;2023-07-31T07:27:08;6.88;;;4.40;;
11066;SDS011;29763;50.904;5.530;2023-07-31T07:29:34;9.32;;;5.32;;
11066;SDS011;29763;50.904;5.530;2023-07-31T07:32:00;8.15;;;4.50;;
11066;SDS011;29763;50.904;5.530;2023-07-31T07:34:27;5.97;;;4.28;;
11066;SDS011;29763;50.904;5.530;2023-07-31T07:36:54;6.47;;;4.55;;
11066;SDS011;29763;50.904;5.530;2023-07-31T07:39:20;6.57;;;4.15;;
11066;SDS011;29763;50.904;5.530;2023-07-31T07:41:46;7.32;;;4.28;;
11066;SDS011;29763;50.904;5.530;2023-07-31T07:44:13;9.43;;;4.28;;
11066;SDS011;29763;50.904;5.530;2023-07-31T07:46:39;9.15;;;4.20;;
11066;SDS011;29763;50.904;5.530;2023-07-31T07:49:05;5.63;;;4.03;;
11066;SDS011;29763;50.904;5.530;2023-07-31T07:51:31;8.20;;;4.72;;
11066;SDS011;29763;50.904;5.530;2023-07-31T07:54:03;7.45;;;4.75;;
11066;SDS011;29763;50.904;5.530;2023-07-31T07:56:29;6.72;;;4.13;;
11066;SDS011;29763;50.904;5.530;2023-07-31T07:58:55;5.88;;;4.13;;
11066;SDS011;29763;50.904;5.530;2023-07-31T08:01:21;6.30;;;4.00;;
11066;SDS011;29763;50.904;5.530;2023-07-31T08:03:47;6.15;;;3.80;;
11066;SDS011;29763;50.904;5.530;2023-07-31T08:06:14;6.15;;;4.28;;
11066;SDS011;29763;50.904;5.530;2023-07-31T08:08:41;5.82;;;4.22;;
11066;SDS011;29763;50.904;5.530;2023-07-31T08:11:07;6.40;;;4.25;;
11066;SDS011;29763;50.904;5.530;2023-07-31T08:13:32;6.20;;;4.05;;
11066;SDS011;29763;50.904;5.530;2023-07-31T08:16:00;5.63;;;4.30;;
11066;SDS011;29763;50.904;5.530;2023-07-31T08:18:28;6.47;;;4.40;;
11066;SDS011;29763;50.904;5.530;2023-07-31T08:20:53;8.38;;;4.22;;
11066;SDS011;29763;50.904;5.530;2023-07-31T08:23:19;8.15;;;4.45;;
11066;SDS011;29763;50.904;5.530;2023-07-31T08:25:52;6.38;;;3.88;;
11066;SDS011;29763;50.904;5.530;2023-07-31T08:28:18;8.63;;;4.35;;
11066;SDS011;29763;50.904;5.530;2023-07-31T08:30:44;5.40;;;4.00;;
11066;SDS011;29763;50.904;5.530;2023-07-31T08:33:12;6.53;;;4.22;;
11066;SDS011;29763;50.904;5.530;2023-07-31T08:35:39;5.95;;;3.95;;
11066;SDS011;29763;50.904;5.530;2023-07-31T08:38:05;7.53;;;4.68;;
11066;SDS011;29763;50.904;5.530;2023-07-31T08:40:30;7.63;;;4.68;;
11066;SDS011;29763;50.904;5.530;2023-07-31T08:42:56;7.93;;;4.63;;
11066;SDS011;29763;50.904;5.530;2023-07-31T08:45:27;7.03;;;4.28;;
11066;SDS011;29763;50.904;5.530;2023-07-31T08:48:00;6.57;;;4.53;;
11066;SDS011;29763;50.904;5.530;2023-07-31T08:50:25;8.10;;;4.78;;
11066;SDS011;29763;50.904;5.530;2023-07-31T08:52:53;7.00;;;4.03;;
11066;SDS011;29763;50.904;5.530;2023-07-31T08:55:19;4.75;;;3.85;;
11066;SDS011;29763;50.904;5.530;2023-07-31T08:57:52;7.88;;;4.60;;
11066;SDS011;29763;50.904;5.530;2023-07-31T09:00:21;6.78;;;4.45;;
11066;SDS011;29763;50.904;5.530;2023-07-31T09:03:02;7.00;;;4.75;;
11066;SDS011;29763;50.904;5.530;2023-07-31T09:05:32;8.30;;;4.85;;
11066;SDS011;29763;50.904;5.530;2023-07-31T09:08:00;5.60;;;4.40;;
11066;SDS011;29763;50.904;5.530;2023-07-31T09:10:31;7.90;;;4.70;;
11066;SDS011;29763;50.904;5.530;2023-07-31T09:12:57;7.75;;;4.35;;
11066;SDS011;29763;50.904;5.530;2023-07-31T09:15:24;7.13;;;4.25;;
11066;SDS011;29763;50.904;5.530;2023-07-31T09:18:01;7.60;;;4.55;;
11066;SDS011;29763;50.904;5.530;2023-07-31T09:20:29;5.72;;;4.40;;
11066;SDS011;29763;50.904;5.530;2023-07-31T09:23:09;7.38;;;4.13;;
11066;SDS011;29763;50.904;5.530;2023-07-31T09:25:39;7.93;;;4.50;;
11066;SDS011;29763;50.904;5.530;2023-07-31T09:28:06;6.10;;;3.63;;
11066;SDS011;29763;50.904;5.530;2023-07-31T09:30:43;4.03;;;3.55;;
11066;SDS011;29763;50.904;5.530;2023-07-31T09:33:13;4.93;;;3.25;;
11066;SDS011;29763;50.904;5.530;2023-07-31T09:35:44;4.10;;;3.03;;
11066;SDS011;29763;50.904;5.530;2023-07-31T09:38:17;3.65;;;3.13;;
11066;SDS011;29763;50.904;5.530;2023-07-31T09:40:47;4.88;;;3.08;;
11066;SDS011;29763;50.904;5.530;2023-07-31T09:43:17;4.18;;;2.90;;
11066;SDS011;29763;50.904;5.530;2023-07-31T09:45:45;4.63;;;2.97;;
11066;SDS011;29763;50.904;5.530;2023-07-31T09:48:12;3.63;;;2.80;;
11066;SDS011;29763;50.904;5.530;2023-07-31T09:50:43;3.38;;;2.90;;
11066;SDS011;29763;50.904;5.530;2023-07-31T09:53:14;3.10;;;2.33;;
11066;SDS011;29763;50.904;5.530;2023-07-31T09:55:42;3.78;;;3.00;;
11066;SDS011;29763;50.904;5.530;2023-07-31T09:58:09;4.20;;;3.20;;
11066;SDS011;29763;50.904;5.530;2023-07-31T10:00:36;3.72;;;2.83;;
11066;SDS011;29763;50.904;5.530;2023-07-31T10:03:06;3.80;;;2.70;;
11066;SDS011;29763;50.904;5.530;2023-07-31T10:05:34;3.40;;;2.33;;
11066;SDS011;29763;50.904;5.530;2023-07-31T10:08:05;3.15;;;2.55;;
11066;SDS011;29763;50.904;5.530;2023-07-31T10:10:32;3.63;;;2.33;;
11066;SDS011;29763;50.904;5.530;2023-07-31T10:13:01;3.25;;;2.45;;
11066;SDS011;29763;50.904;5.530;2023-07-31T10:15:27;3.70;;;2.75;;
11066;SDS011;29763;50.904;5.530;2023-07-31T10:17:55;2.58;;;2.38;;
11066;SDS011;29763;50.904;5.530;2023-07-31T10:20:23;3.45;;;2.60;;
11066;SDS011;29763;50.904;5.530;2023-07-31T10:22:57;2.75;;;2.35;;
11066;SDS011;29763;50.904;5.530;2023-07-31T10:25:24;2.95;;;2.50;;
11066;SDS011;29763;50.904;5.530;2023-07-31T10:27:55;3.75;;;2.80;;
11066;SDS011;29763;50.904;5.530;2023-07-31T10:30:27;3.25;;;2.65;;
11066;SDS011;29763;50.904;5.530;2023-07-31T10:32:55;4.15;;;3.00;;
11066;SDS011;29763;50.904;5.530;2023-07-31T10:35:22;3.15;;;2.60;;
11066;SDS011;29763;50.904;5.530;2023-07-31T10:37:49;3.60;;;2.78;;
11066;SDS011;29763;50.904;5.530;2023-07-31T10:40:16;4.07;;;3.10;;
11066;SDS011;29763;50.904;5.530;2023-07-31T10:42:45;5.18;;;3.17;;
11066;SDS011;29763;50.904;5.530;2023-07-31T10:45:23;4.70;;;3.85;;
11066;SDS011;29763;50.904;5.530;2023-07-31T10:47:51;4.30;;;3.40;;
11066;SDS011;29763;50.904;5.530;2023-07-31T10:50:27;3.95;;;3.50;;
11066;SDS011;29763;50.904;5.530;2023-07-31T10:52:58;6.03;;;3.95;;
11066;SDS011;29763;50.904;5.530;2023-07-31T10:55:38;4.15;;;3.55;;
11066;SDS011;29763;50.904;5.530;2023-07-31T10:58:24;6.35;;;3.90;;
11066;SDS011;29763;50.904;5.530;2023-07-31T11:00:54;6.70;;;3.95;;
11066;SDS011;29763;50.904;5.530;2023-07-31T11:03:24;5.53;;;3.95;;
11066;SDS011;29763;50.904;5.530;2023-07-31T11:13:29;5.53;;;4.40;;
11066;SDS011;29763;50.904;5.530;2023-07-31T11:16:12;5.55;;;4.53;;
11066;SDS011;29763;50.904;5.530;2023-07-31T11:18:43;5.07;;;4.30;;
11066;SDS011;29763;50.904;5.530;2023-07-31T11:21:20;6.25;;;4.57;;
11066;SDS011;29763;50.904;5.530;2023-07-31T11:23:49;6.05;;;4.93;;
11066;SDS011;29763;50.904;5.530;2023-07-31T11:26:22;6.30;;;4.80;;
11066;SDS011;29763;50.904;5.530;2023-07-31T11:28:50;5.28;;;4.40;;
11066;SDS011;29763;50.904;5.530;2023-07-31T11:31:18;6.95;;;4.68;;
11066;SDS011;29763;50.904;5.530;2023-07-31T11:33:48;6.35;;;5.00;;
11066;SDS011;29763;50.904;5.530;2023-07-31T11:36:16;6.60;;;5.20;;
11066;SDS011;29763;50.904;5.530;2023-07-31T11:38:46;7.93;;;4.85;;
11066;SDS011;29763;50.904;5.530;2023-07-31T11:41:13;6.85;;;4.93;;
11066;SDS011;29763;50.904;5.530;2023-07-31T11:43:46;6.00;;;5.05;;
11066;SDS011;29763;50.904;5.530;2023-07-31T11:46:12;6.22;;;5.10;;
11066;SDS011;29763;50.904;5.530;2023-07-31T11:48:48;5.63;;;4.60;;
11066;SDS011;29763;50.904;5.530;2023-07-31T11:51:15;7.25;;;5.30;;
11066;SDS011;29763;50.904;5.530;2023-07-31T11:53:45;6.60;;;4.70;;
11066;SDS011;29763;50.904;5.530;2023-07-31T11:56:19;7.53;;;5.10;;
11066;SDS011;29763;50.904;5.530;2023-07-31T11:58:46;7.25;;;4.97;;
11066;SDS011;29763;50.904;5.530;2023-07-31T12:01:17;6.05;;;4.53;;
11066;SDS011;29763;50.904;5.530;2023-07-31T12:03:45;7.18;;;5.20;;
11066;SDS011;29763;50.904;5.530;2023-07-31T12:06:11;6.55;;;5.20;;
11066;SDS011;29763;50.904;5.530;2023-07-31T12:08:37;8.07;;;5.22;;
11066;SDS011;29763;50.904;5.530;2023-07-31T12:11:04;9.05;;;5.35;;
11066;SDS011;29763;50.904;5.530;2023-07-31T12:13:42;5.82;;;5.07;;
11066;SDS011;29763;50.904;5.530;2023-07-31T12:16:07;7.93;;;4.55;;
11066;SDS011;29763;50.904;5.530;2023-07-31T12:18:34;7.30;;;4.90;;
11066;SDS011;29763;50.904;5.530;2023-07-31T12:21:07;6.72;;;4.95;;
11066;SDS011;29763;50.904;5.530;2023-07-31T12:23:34;7.35;;;4.45;;
11066;SDS011;29763;50.904;5.530;2023-07-31T12:26:01;6.88;;;4.70;;
11066;SDS011;29763;50.904;5.530;2023-07-31T12:28:40;7.05;;;4.45;;
11066;SDS011;29763;50.904;5.530;2023-07-31T12:31:05;6.57;;;4.43;;
11066;SDS011;29763;50.904;5.530;2023-07-31T12:33:35;5.93;;;4.80;;
11066;SDS011;29763;50.904;5.530;2023-07-31T12:36:12;6.18;;;4.70;;
11066;SDS011;29763;50.904;5.530;2023-07-31T12:38:42;5.35;;;4.53;;
11066;SDS011;29763;50.904;5.530;2023-07-31T12:41:08;7.40;;;4.68;;
11066;SDS011;29763;50.904;5.530;2023-07-31T12:43:36;7.57;;;4.53;;
11066;SDS011;29763;50.904;5.530;2023-07-31T12:46:03;5.57;;;4.25;;
11066;SDS011;29763;50.904;5.530;2023-07-31T12:48:29;5.65;;;4.00;;
11066;SDS011;29763;50.904;5.530;2023-07-31T12:50:57;6.63;;;4.07;;
11066;SDS011;29763;50.904;5.530;2023-07-31T12:53:23;4.78;;;4.03;;
11066;SDS011;29763;50.904;5.530;2023-07-31T12:55:49;5.93;;;4.40;;
11066;SDS011;29763;50.904;5.530;2023-07-31T12:58:16;6.03;;;4.07;;
11066;SDS011;29763;50.904;5.530;2023-07-31T13:00:49;4.53;;;4.00;;
11066;SDS011;29763;50.904;5.530;2023-07-31T13:03:18;5.18;;;4.38;;
11066;SDS011;29763;50.904;5.530;2023-07-31T13:05:45;8.73;;;4.47;;
11066;SDS011;29763;50.904;5.530;2023-07-31T13:08:12;5.43;;;4.03;;
11066;SDS011;29763;50.904;5.530;2023-07-31T13:10:38;4.97;;;3.92;;
11066;SDS011;29763;50.904;5.530;2023-07-31T13:13:07;5.82;;;4.10;;
11066;SDS011;29763;50.904;5.530;2023-07-31T13:15:34;9.43;;;4.50;;
11066;SDS011;29763;50.904;5.530;2023-07-31T13:18:01;5.13;;;4.32;;
11066;SDS011;29763;50.904;5.530;2023-07-31T13:20:29;6.88;;;4.50;;
11066;SDS011;29763;50.904;5.530;2023-07-31T13:22:54;6.80;;;4.45;;
11066;SDS011;29763;50.904;5.530;2023-07-31T13:25:20;6.55;;;4.55;;
11066;SDS011;29763;50.904;5.530;2023-07-31T13:27:52;6.10;;;4.68;;
11066;SDS011;29763;50.904;5.530;2023-07-31T13:30:18;7.05;;;4.68;;
11066;SDS011;29763;50.904;5.530;2023-07-31T13:32:45;7.53;;;4.60;;
11066;SDS011;29763;50.904;5.530;2023-07-31T13:35:11;5.70;;;4.40;;
11066;SDS011;29763;50.904;5.530;2023-07-31T13:37:41;6.22;;;4.95;;
11066;SDS011;29763;50.904;5.530;2023-07-31T13:40:08;6.93;;;4.60;;
11066;SDS011;29763;50.904;5.530;2023-07-31T13:42:35;6.63;;;4.35;;
11066;SDS011;29763;50.904;5.530;2023-07-31T13:45:02;6.15;;;4.72;;
11066;SDS011;29763;50.904;5.530;2023-07-31T13:47:28;6.07;;;4.85;;
11066;SDS011;29763;50.904;5.530;2023-07-31T13:49:56;5.97;;;4.18;;
11066;SDS011;29763;50.904;5.530;2023-07-31T13:52:23;6.53;;;4.60;;
11066;SDS011;29763;50.904;5.530;2023-07-31T13:54:48;4.95;;;4.43;;
11066;SDS011;29763;50.904;5.530;2023-07-31T13:57:14;6.10;;;4.20;;
11066;SDS011;29763;50.904;5.530;2023-07-31T13:59:40;4.82;;;4.22;;
11066;SDS011;29763;50.904;5.530;2023-07-31T14:02:06;6.43;;;4.97;;
11066;SDS011;29763;50.904;5.530;2023-07-31T14:04:32;6.32;;;5.03;;
11066;SDS011;29763;50.904;5.530;2023-07-31T14:06:58;5.75;;;4.30;;
11066;SDS011;29763;50.904;5.530;2023-07-31T14:09:24;5.22;;;4.43;;
11066;SDS011;29763;50.904;5.530;2023-07-31T14:11:53;7.70;;;4.90;;
11066;SDS011;29763;50.904;5.530;2023-07-31T14:14:20;7.93;;;4.90;;
11066;SDS011;29763;50.904;5.530;2023-07-31T14:16:46;5.50;;;4.80;;
11066;SDS011;29763;50.904;5.530;2023-07-31T14:19:15;8.00;;;4.70;;
11066;SDS011;29763;50.904;5.530;2023-07-31T14:21:41;7.25;;;5.05;;
11066;SDS011;29763;50.904;5.530;2023-07-31T14:24:08;7.35;;;4.82;;
11066;SDS011;29763;50.904;5.530;2023-07-31T14:26:35;5.22;;;4.43;;
11066;SDS011;29763;50.904;5.530;2023-07-31T14:29:01;7.15;;;4.35;;
11066;SDS011;29763;50.904;5.530;2023-07-31T14:31:26;6.55;;;4.60;;
11066;SDS011;29763;50.904;5.530;2023-07-31T14:33:52;7.75;;;4.07;;
11066;SDS011;29763;50.904;5.530;2023-07-31T14:36:19;6.80;;;4.45;;
11066;SDS011;29763;50.904;5.530;2023-07-31T14:38:44;6.93;;;4.43;;
11066;SDS011;29763;50.904;5.530;2023-07-31T14:41:10;7.25;;;4.38;;
11066;SDS011;29763;50.904;5.530;2023-07-31T14:43:38;7.43;;;4.45;;
11066;SDS011;29763;50.904;5.530;2023-07-31T14:46:05;6.63;;;4.20;;
11066;SDS011;29763;50.904;5.530;2023-07-31T14:48:32;6.22;;;4.32;;
11066;SDS011;29763;50.904;5.530;2023-07-31T14:50:58;5.78;;;4.68;;
11066;SDS011;29763;50.904;5.530;2023-07-31T14:53:24;6.50;;;4.50;;
11066;SDS011;29763;50.904;5.530;2023-07-31T14:55:49;7.05;;;4.80;;
11066;SDS011;29763;50.904;5.530;2023-07-31T14:58:15;6.63;;;4.80;;
11066;SDS011;29763;50.904;5.530;2023-07-31T15:00:42;7.25;;;4.68;;
11066;SDS011;29763;50.904;5.530;2023-07-31T15:03:16;6.93;;;4.50;;
11066;SDS011;29763;50.904;5.530;2023-07-31T15:05:44;7.45;;;4.63;;
11066;SDS011;29763;50.904;5.530;2023-07-31T15:08:11;7.55;;;4.57;;